Terminal Aerodrome Forecast
Issued by NWS

Home | Current Version | Previous Version | Text Only | Print | Product List | Glossary On
Versions: 1 2 3 4 5 6 7 8 9 10 11 12 13 14 15 16 17 18 19 20 21 22 23
354
FTUS41 KGYX 121122
TAFHIE
TAF
KHIE 121122Z 1212/1312 21005KT P6SM SCT040
     FM121800 21005KT P6SM OVC050
     FM130000 VRB03KT P6SM -SHSN OVC040
     FM130600 VRB03KT 4SM -SN BR BKN020 OVC035=

USA.gov is the U.S. government's official web portal to all federal, state and local government web resources and services.